This is the latest recevied weather packets stored in our database for station/object KB8DOA. If no packets are shown the sender has not sent any weather packets the latest 10 day(s).
| Time | Temp. | Humidity | Pressure | Rain* | Wind** | Luminosity | Snow |
|---|---|---|---|---|---|---|---|
| 1777723203 | 26.11° C | 88% | 1012.2 hPa | 0 mm | - | 109 W/m² | - |
| 1777720804 | 25° C | 91% | 1012.4 hPa | 0 mm | - | 48 W/m² | - |
| 1777720204 | 25° C | 91% | 1012.4 hPa | 0 mm | - | 27 W/m² | - |
| 1777719903 | 25° C | 91% | 1012.4 hPa | 0 mm | - | 18 W/m² | - |
| 1777717503 | 24.44° C | 91% | 1012.3 hPa | 0 mm | - | 0 W/m² | - |
| 1777716003 | 25° C | 90% | 1012.4 hPa | 0 mm | - | 0 W/m² | - |
| 1777711804 | 25° C | 91% | 1012 hPa | 0 mm | - | 0 W/m² | - |
| 1777705504 | 24.44° C | 89% | 1012.1 hPa | 0 mm | - | 0 W/m² | - |
| 1777701903 | 25° C | 87% | 1012.3 hPa | 0 mm | - | 0 W/m² | - |
| 1777701603 | 25° C | 87% | 1012.3 hPa | 0 mm | - | 0 W/m² | - |
| 1777700703 | 25.56° C | 87% | 1012.5 hPa | 0 mm | - | 0 W/m² | - |
| 1777698303 | 25.56° C | 86% | 1012.6 hPa | 0 mm | - | 0 W/m² | - |
| 1777695304 | 25.56° C | 85% | 1013.2 hPa | 0 mm | - | 0 W/m² | - |
| 1777692905 | 26.11° C | 82% | 1012.8 hPa | 0 mm | - | 0 W/m² | - |
| 1777691404 | 26.67° C | 82% | 1012.7 hPa | 0 mm | - | 0 W/m² | - |
| 1777690204 | 26.67° C | 80% | 1012.6 hPa | 0 mm | - | 0 W/m² | - |
| 1777689604 | 26.67° C | 80% | 1012.1 hPa | 0 mm | - | 0 W/m² | - |
| 1777689304 | 26.67° C | 79% | 1011.8 hPa | 0 mm | - | 0 W/m² | - |
| 1777688404 | 26.67° C | 79% | 1012 hPa | 0 mm | - | 0 W/m² | - |
| 1777681204 | 27.22° C | 73% | 1009.6 hPa | 0 mm | - | 0 W/m² | - |
| 1777679704 | 27.22° C | 71% | 1009.1 hPa | 0 mm | - | 0 W/m² | - |
| 1777676104 | 27.78° C | 67% | 1009.6 hPa | 0 mm | - | 0 W/m² | - |
| 1777672804 | 27.78° C | 71% | 1009.3 hPa | 0 mm | - | 0 W/m² | - |
| 1777671904 | 27.78° C | 69% | 1009.5 hPa | 0 mm | - | 0 W/m² | - |
| 1777671604 | 27.78° C | 70% | 1008.9 hPa | 0 mm | - | 0 W/m² | - |
* Rain latest hour (hover to see other rain measurements)
** Current wind speed in m/s (hover to see current wind gust speed)